Time;durP1;ratioP1;P1;durP2;ratioP2;P2;SDS_P1;SDS_P2;PMS_P1;PMS_P2;Temp;Humidity;BMP_temperature;BMP_pressure;BME280_temperature;BME280_humidity;BME280_pressure;Samples;Min_cycle;Max_cycle;Signal;HPM_P1;HPM_P2
2022/07/15 00:01:35;;;;;;;5.22;3.47;;;23.50;98.40;;;;;;5049690;28;20063;-56
2022/07/15 00:04:40;;;;;;;6.43;3.60;;;23.50;99.70;;;;;;5048448;28;20036;-53
2022/07/15 00:07:44;;;;;;;7.03;3.15;;;23.50;99.90;;;;;;5049543;28;20411;-53
2022/07/15 00:10:48;;;;;;;8.07;3.50;;;23.40;99.90;;;;;;5049083;28;20059;-53
2022/07/15 00:13:52;;;;;;;5.70;3.40;;;23.40;99.90;;;;;;5048968;28;20056;-52
2022/07/15 00:16:56;;;;;;;7.05;3.30;;;23.30;99.90;;;;;;5049205;28;20044;-54
2022/07/15 00:20:02;;;;;;;4.20;3.60;;;23.30;99.90;;;;;;5049019;28;20043;-55
2022/07/15 00:23:07;;;;;;;6.47;3.35;;;23.30;99.90;;;;;;5049247;28;20040;-56
2022/07/15 00:26:11;;;;;;;4.55;3.28;;;23.20;99.90;;;;;;5049564;28;20052;-53
2022/07/15 00:29:15;;;;;;;3.13;2.63;;;23.10;99.90;;;;;;5049091;28;20048;-52
2022/07/15 00:32:18;;;;;;;4.80;2.70;;;23.10;99.90;;;;;;5049104;28;20056;-55
2022/07/15 00:35:23;;;;;;;9.65;4.18;;;23.00;99.90;;;;;;5048183;28;20502;-53
2022/07/15 00:38:27;;;;;;;3.58;2.90;;;23.00;99.90;;;;;;5049067;28;20048;-55
2022/07/15 00:41:38;;;;;;;5.20;3.00;;;22.90;99.90;;;;;;5071609;22;20056;-50
2022/07/15 00:44:42;;;;;;;4.00;2.85;;;22.90;99.90;;;;;;5049076;28;20032;-56
2022/07/15 00:47:57;;;;;;;4.55;3.35;;;23.00;99.90;;;;;;5048673;28;20052;-53
2022/07/15 00:51:01;;;;;;;8.18;3.50;;;23.00;99.90;;;;;;5052996;28;20044;-55
2022/07/15 00:54:09;;;;;;;8.85;3.85;;;23.00;99.90;;;;;;5052670;28;20210;-51
2022/07/15 00:57:15;;;;;;;5.53;3.30;;;23.00;99.90;;;;;;5053081;28;20449;-55
2022/07/15 01:00:19;;;;;;;4.63;3.60;;;23.00;99.90;;;;;;5052016;28;20051;-56
2022/07/15 01:03:25;;;;;;;3.92;3.00;;;22.90;99.90;;;;;;5052794;28;20048;-53
2022/07/15 01:06:29;;;;;;;3.85;3.15;;;22.90;99.90;;;;;;5052176;28;20403;-50
2022/07/15 01:09:34;;;;;;;4.30;3.00;;;22.80;99.90;;;;;;5052089;28;20047;-52
2022/07/15 01:12:40;;;;;;;4.35;3.10;;;22.70;99.90;;;;;;5052101;28;20407;-55
2022/07/15 01:15:47;;;;;;;5.22;2.78;;;22.70;99.90;;;;;;5051421;28;20040;-53
2022/07/15 01:18:51;;;;;;;4.82;3.58;;;22.70;99.90;;;;;;5051738;28;20048;-55
2022/07/15 01:21:56;;;;;;;4.45;3.20;;;22.70;99.90;;;;;;5051250;28;20498;-52
2022/07/15 01:25:00;;;;;;;4.95;3.33;;;22.60;99.90;;;;;;5051343;28;20047;-53
2022/07/15 01:28:08;;;;;;;4.38;3.28;;;22.60;99.90;;;;;;5051346;28;20052;-55
2022/07/15 01:31:13;;;;;;;10.50;3.13;;;22.60;99.90;;;;;;5051092;28;20040;-55
2022/07/15 01:34:19;;;;;;;4.53;3.00;;;22.60;99.90;;;;;;5051363;28;20076;-57
2022/07/15 01:37:23;;;;;;;4.63;3.50;;;22.50;99.90;;;;;;5050909;28;20529;-55
2022/07/15 01:40:33;;;;;;;4.88;3.40;;;22.40;99.90;;;;;;5050693;28;20036;-52
2022/07/15 01:43:37;;;;;;;6.10;4.03;;;22.40;99.90;;;;;;5050954;28;20052;-51
2022/07/15 01:46:41;;;;;;;5.88;3.80;;;22.30;99.90;;;;;;5051114;28;20044;-55
2022/07/15 01:49:45;;;;;;;7.07;3.72;;;22.30;99.90;;;;;;5050903;28;20056;-55
2022/07/15 01:52:51;;;;;;;6.22;3.13;;;22.20;99.90;;;;;;5051726;28;20419;-51
2022/07/15 01:55:55;;;;;;;3.78;2.80;;;22.20;99.90;;;;;;5050885;28;20043;-52
2022/07/15 01:58:59;;;;;;;5.25;2.58;;;22.20;99.90;;;;;;5050807;28;20043;-51
2022/07/15 02:02:03;;;;;;;4.18;2.20;;;22.20;99.90;;;;;;5050339;28;20044;-52
2022/07/15 02:05:07;;;;;;;4.40;2.47;;;22.30;99.90;;;;;;5050552;28;20498;-54
2022/07/15 02:08:11;;;;;;;4.05;2.35;;;22.30;99.90;;;;;;5050968;28;20051;-52
2022/07/15 02:11:16;;;;;;;3.13;2.30;;;22.30;99.90;;;;;;5050411;28;20044;-54
2022/07/15 02:14:24;;;;;;;4.80;3.67;;;22.30;99.90;;;;;;5050208;28;20044;-55
2022/07/15 02:17:31;;;;;;;4.25;3.40;;;22.10;99.90;;;;;;5050294;28;20048;-55
2022/07/15 02:20:36;;;;;;;4.50;3.05;;;21.90;99.90;;;;;;5050399;28;20040;-51
2022/07/15 02:23:40;;;;;;;5.25;3.22;;;21.70;99.90;;;;;;5051110;28;20052;-55
2022/07/15 02:26:51;;;;;;;5.65;2.60;;;21.60;99.90;;;;;;5050371;28;20048;-56
2022/07/15 02:29:56;;;;;;;6.13;2.08;;;21.40;99.90;;;;;;5051141;28;20039;-55
2022/07/15 02:33:06;;;;;;;6.05;2.30;;;21.40;99.00;;;;;;5050666;28;20052;-57
2022/07/15 02:36:12;;;;;;;9.95;2.17;;;21.40;98.30;;;;;;5049935;28;20407;-53
2022/07/15 02:39:18;;;;;;;6.13;2.50;;;21.40;97.10;;;;;;5049980;28;20048;-53
2022/07/15 02:42:21;;;;;;;3.75;2.30;;;21.40;96.50;;;;;;5049353;28;20060;-51
2022/07/15 02:45:27;;;;;;;2.17;1.98;;;21.40;96.90;;;;;;5049823;28;20498;-54
2022/07/15 02:48:31;;;;;;;4.28;2.38;;;21.40;96.40;;;;;;5050446;28;20040;-56
2022/07/15 02:51:37;;;;;;;5.25;2.47;;;21.50;96.50;;;;;;5049467;28;20231;-53
2022/07/15 02:54:41;;;;;;;4.10;2.15;;;21.50;96.50;;;;;;5050384;28;20044;-50
2022/07/15 02:57:45;;;;;;;4.82;2.65;;;21.60;96.80;;;;;;5050201;28;20044;-53
2022/07/15 03:00:49;;;;;;;3.60;2.78;;;21.60;98.90;;;;;;5049169;28;20518;-52
2022/07/15 03:03:55;;;;;;;5.95;3.10;;;21.60;99.90;;;;;;5048941;28;20048;-55
2022/07/15 03:07:01;;;;;;;4.97;3.25;;;21.60;99.90;;;;;;5049608;28;20048;-52
2022/07/15 03:10:09;;;;;;;4.57;2.80;;;21.60;99.90;;;;;;5049331;28;20407;-52
2022/07/15 03:13:13;;;;;;;3.42;2.92;;;21.60;99.90;;;;;;5048402;28;20334;-52
2022/07/15 03:16:17;;;;;;;5.32;3.20;;;21.60;99.90;;;;;;5049432;28;20048;-52
2022/07/15 03:19:25;;;;;;;4.70;2.97;;;21.50;99.90;;;;;;5049194;28;20036;-52
2022/07/15 03:22:29;;;;;;;6.63;3.15;;;21.50;99.90;;;;;;5050098;28;20044;-52
2022/07/15 03:25:33;;;;;;;7.55;3.05;;;21.40;99.90;;;;;;5048917;28;20036;-55
2022/07/15 03:28:42;;;;;;;4.20;3.65;;;21.30;99.90;;;;;;5050552;28;20040;-53
2022/07/15 03:31:46;;;;;;;4.80;3.13;;;21.20;99.90;;;;;;5049001;28;20054;-54
2022/07/15 03:34:59;;;;;;;7.70;3.53;;;21.10;99.90;;;;;;5049015;28;20439;-52
2022/07/15 03:38:06;;;;;;;4.70;3.05;;;21.00;99.90;;;;;;5049162;28;20048;-51
2022/07/15 03:41:10;;;;;;;5.07;3.28;;;20.90;99.90;;;;;;5049625;28;20455;-51
2022/07/15 03:44:16;;;;;;;8.05;3.75;;;20.80;99.90;;;;;;5049346;28;20060;-52
2022/07/15 03:47:20;;;;;;;4.85;3.47;;;20.70;99.90;;;;;;5049940;28;20427;-51
2022/07/15 03:50:25;;;;;;;9.25;3.50;;;20.70;99.90;;;;;;5048713;28;20408;-54
2022/07/15 03:53:29;;;;;;;5.50;3.92;;;20.70;99.90;;;;;;5048340;28;20032;-55
2022/07/15 03:56:33;;;;;;;4.20;3.40;;;20.60;99.90;;;;;;5049779;28;20040;-56
2022/07/15 03:59:38;;;;;;;6.78;4.00;;;20.60;99.90;;;;;;5048649;28;20044;-52
2022/07/15 04:02:42;;;;;;;5.22;3.33;;;20.60;99.90;;;;;;5048458;28;20043;-54
2022/07/15 04:05:46;;;;;;;4.72;3.83;;;20.50;99.90;;;;;;5049646;28;20040;-53
2022/07/15 04:08:51;;;;;;;9.93;4.40;;;20.50;99.90;;;;;;5049145;28;20044;-54
2022/07/15 04:11:55;;;;;;;6.03;3.88;;;20.50;99.90;;;;;;5049647;28;20051;-55
2022/07/15 04:14:59;;;;;;;5.10;3.90;;;20.50;99.90;;;;;;5048614;28;20507;-50
2022/07/15 04:18:04;;;;;;;8.30;3.80;;;20.50;99.90;;;;;;5049442;28;20044;-53
2022/07/15 04:21:09;;;;;;;8.88;4.30;;;20.50;99.90;;;;;;5049481;28;20056;-56
2022/07/15 04:24:13;;;;;;;11.35;4.53;;;20.50;99.90;;;;;;5050671;28;20052;-50
2022/07/15 04:27:17;;;;;;;8.23;4.28;;;20.50;99.90;;;;;;5052806;28;20044;-50
2022/07/15 04:30:22;;;;;;;7.65;4.10;;;20.60;99.90;;;;;;5052698;28;20044;-52
2022/07/15 04:33:26;;;;;;;11.27;4.45;;;20.70;99.90;;;;;;5051992;28;20060;-54
2022/07/15 04:36:30;;;;;;;7.50;3.90;;;20.70;99.90;;;;;;5052742;28;20056;-53
2022/07/15 04:39:34;;;;;;;8.52;4.43;;;20.80;99.90;;;;;;5052842;28;20048;-53
2022/07/15 04:42:39;;;;;;;7.05;3.78;;;22.60;99.90;;;;;;5053808;28;20048;-53
2022/07/15 04:45:47;;;;;;;10.00;3.47;;;25.10;99.90;;;;;;5052598;28;20044;-53
2022/07/15 04:52:17;;;;;;;;;;;28.80;95.90;;;;;;5052608;28;20048;-52
2022/07/15 04:55:24;;;;;;;5.95;3.50;;;30.00;93.30;;;;;;5051287;28;19915;-55
2022/07/15 04:58:36;;;;;;;6.50;3.75;;;31.00;91.50;;;;;;5051577;28;20060;-54
2022/07/15 05:01:43;;;;;;;5.05;3.58;;;31.30;90.40;;;;;;5051461;28;20407;-52
2022/07/15 05:04:52;;;;;;;18.35;4.95;;;31.70;89.40;;;;;;5051123;28;20717;-53
2022/07/15 05:08:00;;;;;;;5.75;3.40;;;32.20;87.50;;;;;;5051327;28;20056;-52
2022/07/15 05:11:04;;;;;;;13.65;3.97;;;32.40;86.00;;;;;;5051476;28;20045;-54
2022/07/15 05:14:10;;;;;;;9.05;3.75;;;32.70;84.60;;;;;;5050832;28;20273;-53
2022/07/15 05:17:14;;;;;;;5.25;3.20;;;32.90;83.70;;;;;;5052211;28;20052;-55
2022/07/15 05:20:18;;;;;;;8.00;2.80;;;32.60;83.50;;;;;;5052404;28;20044;-54
2022/07/15 05:23:22;;;;;;;12.18;3.45;;;32.80;83.30;;;;;;5050955;28;20052;-55
2022/07/15 05:26:31;;;;;;;6.47;3.20;;;33.40;82.50;;;;;;5051698;28;20067;-53
2022/07/15 05:29:35;;;;;;;7.07;3.15;;;33.70;81.60;;;;;;5052508;28;20040;-53
2022/07/15 05:32:40;;;;;;;10.13;3.80;;;33.80;81.10;;;;;;5051125;28;20411;-51
2022/07/15 05:35:49;;;;;;;6.15;2.67;;;32.80;80.90;;;;;;5050583;28;20243;-53
2022/07/15 05:38:53;;;;;;;7.75;2.97;;;32.80;80.70;;;;;;5051946;28;20056;-56
2022/07/15 05:41:58;;;;;;;5.53;3.00;;;33.20;79.00;;;;;;5051819;28;20060;-54
2022/07/15 05:45:06;;;;;;;7.53;3.15;;;33.30;78.60;;;;;;5050548;28;20044;-51
2022/07/15 05:48:10;;;;;;;5.13;2.70;;;33.10;79.50;;;;;;5053205;28;20047;-54
2022/07/15 05:51:20;;;;;;;5.80;2.72;;;33.50;78.80;;;;;;5050482;28;20044;-54
2022/07/15 05:54:24;;;;;;;5.25;2.85;;;33.70;78.00;;;;;;5050518;28;20052;-57
2022/07/15 05:57:29;;;;;;;5.28;2.70;;;33.70;78.00;;;;;;5050014;28;20519;-51
2022/07/15 06:00:34;;;;;;;4.30;2.78;;;33.70;77.30;;;;;;5047688;28;20400;-52
2022/07/15 06:03:39;;;;;;;6.18;2.90;;;32.80;78.00;;;;;;5049061;28;20044;-54
2022/07/15 06:06:43;;;;;;;5.00;2.63;;;32.40;79.20;;;;;;5050295;28;20048;-55
2022/07/15 06:09:50;;;;;;;3.20;2.70;;;32.50;79.50;;;;;;5044552;28;20527;-53
2022/07/15 06:12:56;;;;;;;5.05;2.78;;;32.20;79.70;;;;;;5050799;28;20044;-50
2022/07/15 06:16:00;;;;;;;6.25;2.97;;;32.20;79.80;;;;;;5048147;28;20041;-52
2022/07/15 06:19:04;;;;;;;4.60;2.40;;;32.70;79.60;;;;;;5049784;28;20040;-55
2022/07/15 06:22:09;;;;;;;8.02;2.92;;;31.90;79.90;;;;;;5047843;28;20044;-51
2022/07/15 06:25:13;;;;;;;5.95;2.67;;;31.40;80.70;;;;;;5060051;28;20039;-53
2022/07/15 06:28:19;;;;;;;7.28;3.08;;;31.60;80.90;;;;;;5049744;28;20048;-55
2022/07/15 06:31:23;;;;;;;9.20;2.90;;;32.00;80.60;;;;;;5049277;28;20044;-54
2022/07/15 06:34:27;;;;;;;7.38;2.65;;;31.80;80.80;;;;;;5043838;28;20058;-55
2022/07/15 06:37:32;;;;;;;5.22;2.80;;;32.70;80.30;;;;;;5049549;28;20498;-55
2022/07/15 06:40:37;;;;;;;4.85;2.60;;;33.40;79.40;;;;;;5049599;28;20040;-55
2022/07/15 06:43:42;;;;;;;5.45;2.50;;;33.50;78.50;;;;;;5049848;28;20048;-57
2022/07/15 06:46:48;;;;;;;5.80;2.63;;;33.60;78.30;;;;;;5036950;28;20071;-57
2022/07/15 06:49:52;;;;;;;6.13;2.80;;;32.30;78.90;;;;;;5038460;28;20069;-57
2022/07/15 06:52:57;;;;;;;6.63;2.60;;;31.20;81.70;;;;;;5029934;28;20044;-55
2022/07/15 06:56:01;;;;;;;19.25;4.05;;;30.90;82.90;;;;;;5034088;28;20048;-55
2022/07/15 06:59:05;;;;;;;8.57;2.60;;;31.50;82.40;;;;;;5040978;28;20049;-57
2022/07/15 07:02:09;;;;;;;3.75;2.65;;;32.00;81.50;;;;;;5044014;28;20052;-57
2022/07/15 07:05:14;;;;;;;9.00;3.10;;;33.00;80.40;;;;;;5026111;28;20052;-58
2022/07/15 07:08:18;;;;;;;3.63;2.45;;;33.90;81.30;;;;;;5036622;28;20048;-55
2022/07/15 07:11:22;;;;;;;5.68;2.53;;;34.80;79.50;;;;;;5048712;28;20040;-51
2022/07/15 07:14:25;;;;;;;6.65;3.38;;;33.70;81.10;;;;;;5049268;28;20044;-53
2022/07/15 07:17:30;;;;;;;5.22;2.42;;;33.90;82.00;;;;;;5073649;22;20044;-57
2022/07/15 07:20:35;;;;;;;3.88;2.70;;;34.50;80.20;;;;;;5008422;28;20045;-58
2022/07/15 07:23:39;;;;;;;5.20;2.55;;;35.50;78.40;;;;;;5007609;28;20040;-58
2022/07/15 07:26:44;;;;;;;4.10;2.30;;;36.00;77.90;;;;;;5016202;28;20113;-58
2022/07/15 07:29:48;;;;;;;5.63;2.00;;;36.40;77.70;;;;;;4994457;28;20053;-58
2022/07/15 07:32:52;;;;;;;4.30;1.85;;;37.70;76.10;;;;;;4988008;28;20508;-57
2022/07/15 07:35:56;;;;;;;4.07;2.00;;;38.20;74.70;;;;;;4987125;28;20041;-57
2022/07/15 07:39:00;;;;;;;5.70;2.05;;;38.50;74.30;;;;;;5000444;28;20061;-56
2022/07/15 07:42:04;;;;;;;3.33;2.15;;;39.10;73.00;;;;;;4989453;28;20071;-58
2022/07/15 07:45:10;;;;;;;4.45;1.63;;;39.70;72.10;;;;;;4991061;28;20429;-58
2022/07/15 07:48:16;;;;;;;4.82;1.73;;;40.00;71.50;;;;;;4993124;28;20045;-57
2022/07/15 07:51:20;;;;;;;3.85;1.65;;;40.90;69.70;;;;;;4995067;28;20053;-53
2022/07/15 07:54:24;;;;;;;3.65;1.70;;;41.20;68.60;;;;;;4989330;28;20409;-55
2022/07/15 07:57:28;;;;;;;4.32;1.58;;;40.50;68.00;;;;;;4989406;28;20045;-57
2022/07/15 08:00:34;;;;;;;2.22;1.40;;;41.30;67.80;;;;;;4997004;28;20053;-56
2022/07/15 08:03:38;;;;;;;5.53;1.60;;;41.90;67.00;;;;;;4971025;28;20046;-57
2022/07/15 08:06:41;;;;;;;3.10;1.50;;;42.40;66.60;;;;;;4970961;28;20052;-57
2022/07/15 08:09:45;;;;;;;8.15;1.80;;;42.20;66.30;;;;;;4977906;28;20045;-58
2022/07/15 08:12:49;;;;;;;4.45;1.23;;;42.50;65.50;;;;;;4990417;28;20045;-56
2022/07/15 08:15:56;;;;;;;3.53;1.40;;;42.70;64.30;;;;;;4990148;28;20053;-57
2022/07/15 08:18:59;;;;;;;5.40;1.63;;;43.10;64.10;;;;;;4989238;28;20286;-56
2022/07/15 08:22:03;;;;;;;1.85;1.35;;;42.50;64.00;;;;;;4996489;28;20037;-57
2022/07/15 08:25:08;;;;;;;4.57;1.40;;;43.10;63.80;;;;;;4990868;28;20049;-56
2022/07/15 08:28:12;;;;;;;3.80;1.40;;;43.20;62.40;;;;;;4988222;28;20057;-58
2022/07/15 08:31:16;;;;;;;4.22;1.23;;;43.90;62.30;;;;;;4995300;28;20204;-57
2022/07/15 08:34:20;;;;;;;4.43;1.90;;;44.30;60.60;;;;;;4991811;28;20049;-58
2022/07/15 08:37:27;;;;;;;3.08;1.20;;;43.40;61.40;;;;;;4989143;28;20037;-58
2022/07/15 08:40:31;;;;;;;5.72;1.63;;;41.20;62.80;;;;;;4999785;28;20127;-58
2022/07/15 08:43:36;;;;;;;6.10;1.50;;;40.80;64.40;;;;;;4991521;28;20026;-58
2022/07/15 08:46:44;;;;;;;4.05;1.35;;;41.40;61.40;;;;;;4986948;28;20425;-57
2022/07/15 08:49:55;;;;;;;4.45;1.35;;;42.70;61.70;;;;;;4991866;28;20045;-58
2022/07/15 08:53:00;;;;;;;5.45;1.90;;;43.20;60.70;;;;;;4996017;28;20037;-56
2022/07/15 08:56:05;;;;;;;3.85;1.30;;;43.00;61.80;;;;;;4997144;28;20037;-57
2022/07/15 08:59:09;;;;;;;1.75;1.17;;;42.30;61.30;;;;;;4994831;28;20053;-57
2022/07/15 09:02:14;;;;;;;2.47;1.23;;;43.20;61.10;;;;;;4992723;28;20527;-58
2022/07/15 09:05:21;;;;;;;2.22;1.45;;;44.90;59.90;;;;;;4991897;28;20409;-56
2022/07/15 09:08:25;;;;;;;4.13;1.38;;;44.80;59.50;;;;;;4992491;28;20508;-52
2022/07/15 09:11:30;;;;;;;4.05;1.55;;;44.80;59.40;;;;;;4982897;28;20041;-53
2022/07/15 09:14:36;;;;;;;5.10;1.45;;;45.00;59.10;;;;;;4992536;28;20077;-56
2022/07/15 09:17:40;;;;;;;3.70;1.40;;;44.10;60.10;;;;;;4992151;28;20537;-57
2022/07/15 09:20:46;;;;;;;6.55;2.13;;;45.60;59.40;;;;;;4992633;28;20048;-57
2022/07/15 09:23:50;;;;;;;3.55;1.42;;;46.90;58.50;;;;;;4992661;28;20508;-56
2022/07/15 09:26:54;;;;;;;1.48;1.10;;;47.70;57.60;;;;;;4990875;28;20037;-53
2022/07/15 09:34:02;;;;;;;4.80;1.50;;;48.00;56.60;;;;;;4983860;28;20513;-57
2022/07/15 09:37:06;;;;;;;3.58;1.40;;;47.90;56.50;;;;;;5003816;28;20053;-54
2022/07/15 09:40:10;;;;;;;2.28;1.20;;;49.00;56.30;;;;;;4998212;28;20045;-57
2022/07/15 09:43:14;;;;;;;4.32;1.23;;;49.30;55.50;;;;;;4997293;28;20119;-55
2022/07/15 09:46:21;;;;;;;4.05;1.30;;;49.80;55.20;;;;;;4993799;28;20041;-57
2022/07/15 09:49:25;;;;;;;2.15;1.17;;;48.80;55.50;;;;;;4993553;28;20501;-54
2022/07/15 09:52:45;;;;;;;2.00;1.23;;;48.50;55.40;;;;;;4984028;28;20045;-55
2022/07/15 09:55:49;;;;;;;6.25;1.88;;;45.90;56.00;;;;;;5000687;28;20070;-59
2022/07/15 09:58:54;;;;;;;2.55;1.40;;;45.50;55.40;;;;;;4998489;28;20277;-56
2022/07/15 10:01:59;;;;;;;1.98;1.20;;;43.20;57.10;;;;;;4993074;28;20041;-55
2022/07/15 10:05:05;;;;;;;3.38;1.50;;;45.60;56.80;;;;;;4991385;28;20045;-58
2022/07/15 10:08:10;;;;;;;3.42;1.38;;;43.50;56.20;;;;;;4992180;28;20049;-57
2022/07/15 10:11:15;;;;;;;3.38;1.20;;;44.60;57.10;;;;;;4992354;28;20053;-58
2022/07/15 10:14:31;;;;;;;2.40;1.50;;;46.70;55.80;;;;;;4991704;28;20049;-58
2022/07/15 10:17:56;;;;;;;4.60;1.80;;;48.70;55.10;;;;;;4981817;28;20037;-56
2022/07/15 10:21:03;;;;;;;1.77;1.00;;;49.20;53.30;;;;;;4989969;28;20401;-58
2022/07/15 10:24:35;;;;;;;2.17;1.20;;;49.80;52.70;;;;;;4998318;28;20041;-57
2022/07/15 10:27:59;;;;;;;2.42;1.10;;;50.10;53.00;;;;;;4990721;28;20057;-56
2022/07/15 10:31:14;;;;;;;5.55;1.02;;;47.00;52.00;;;;;;4995104;28;20053;-53
2022/07/15 10:34:19;;;;;;;2.03;0.95;;;48.70;51.20;;;;;;4999441;28;20045;-57
2022/07/15 10:37:27;;;;;;;2.47;1.27;;;44.60;52.30;;;;;;4992046;28;20660;-56
2022/07/15 10:41:21;;;;;;;4.50;1.30;;;46.50;52.60;;;;;;5001730;28;20045;-57
2022/07/15 10:44:28;;;;;;;4.45;1.40;;;46.20;51.80;;;;;;4989838;28;20041;-58
2022/07/15 10:47:33;;;;;;;2.28;1.00;;;42.30;52.90;;;;;;4990518;28;20049;-56
2022/07/15 10:50:40;;;;;;;5.63;1.30;;;43.50;51.90;;;;;;4984946;28;20041;-58
2022/07/15 10:53:48;;;;;;;2.92;1.15;;;46.10;52.50;;;;;;4987294;28;20041;-59
2022/07/15 10:56:52;;;;;;;2.10;1.10;;;48.10;50.90;;;;;;4992490;28;20057;-58
2022/07/15 10:59:56;;;;;;;1.30;0.88;;;49.30;49.50;;;;;;4982440;28;20042;-55
2022/07/15 11:03:18;;;;;;;3.95;1.25;;;50.40;49.30;;;;;;4991798;28;20049;-58
2022/07/15 11:06:22;;;;;;;5.93;1.10;;;50.70;49.10;;;;;;4989692;28;20401;-56
2022/07/15 11:09:52;;;;;;;2.40;1.30;;;47.70;51.20;;;;;;4991697;28;20045;-58
2022/07/15 11:12:59;;;;;;;3.42;1.23;;;45.20;51.90;;;;;;4994440;28;20647;-55
2022/07/15 11:16:03;;;;;;;6.55;1.75;;;44.50;53.10;;;;;;4984866;28;20050;-58
2022/07/15 11:19:11;;;;;;;3.50;1.23;;;46.20;53.10;;;;;;4988982;28;20045;-58
2022/07/15 11:22:17;;;;;;;6.35;1.45;;;47.50;51.60;;;;;;4985172;28;20124;-58
2022/07/15 11:25:30;;;;;;;4.57;1.00;;;48.20;51.40;;;;;;4995948;28;20038;-58
2022/07/15 11:28:36;;;;;;;4.18;1.50;;;49.00;50.80;;;;;;4985025;28;20041;-56
2022/07/15 11:31:42;;;;;;;2.05;1.00;;;49.20;51.00;;;;;;4998537;28;20060;-58
2022/07/15 11:34:53;;;;;;;3.38;1.20;;;49.50;50.30;;;;;;4989029;28;20037;-54
2022/07/15 11:38:04;;;;;;;2.88;1.00;;;49.80;49.60;;;;;;4990127;28;20065;-52
2022/07/15 11:44:31;;;;;;;2.40;1.30;;;49.60;50.10;;;;;;4988291;28;20539;-55
2022/07/15 11:47:49;;;;;;;2.45;1.30;;;49.90;50.00;;;;;;4990195;28;20049;-53
2022/07/15 11:50:56;;;;;;;4.85;1.33;;;49.20;50.30;;;;;;4982750;28;20045;-58
2022/07/15 11:54:00;;;;;;;3.28;1.30;;;47.90;50.40;;;;;;4989019;28;20045;-57
2022/07/15 11:57:08;;;;;;;1.45;1.30;;;47.30;50.90;;;;;;4992586;28;20189;-57
2022/07/15 12:00:13;;;;;;;4.40;1.50;;;42.60;51.70;;;;;;4991573;28;20046;-57
2022/07/15 12:03:17;;;;;;;3.05;1.40;;;42.10;54.10;;;;;;4989932;28;20056;-58
2022/07/15 12:06:27;;;;;;;3.75;1.65;;;39.90;55.40;;;;;;4981978;28;20049;-58
2022/07/15 12:09:42;;;;;;;4.95;1.60;;;40.80;55.00;;;;;;5006443;28;20062;-56
2022/07/15 12:12:55;;;;;;;3.97;1.40;;;41.90;54.60;;;;;;4982810;28;20412;-57
2022/07/15 12:15:59;;;;;;;3.85;1.50;;;41.30;53.90;;;;;;4996300;28;20044;-57
2022/07/15 12:19:07;;;;;;;6.85;1.80;;;41.60;53.00;;;;;;5000296;28;20057;-55
2022/07/15 12:22:10;;;;;;;6.25;1.70;;;41.80;53.50;;;;;;4986251;28;20061;-54
2022/07/15 12:25:20;;;;;;;6.75;1.67;;;42.60;52.90;;;;;;4989294;28;20045;-56
2022/07/15 12:28:34;;;;;;;2.72;1.20;;;42.30;52.10;;;;;;4989468;28;20602;-58
2022/07/15 12:31:40;;;;;;;2.55;1.35;;;41.80;53.50;;;;;;4983929;28;20508;-56
2022/07/15 12:34:47;;;;;;;6.20;1.60;;;42.60;53.20;;;;;;4989499;28;20046;-58
2022/07/15 12:37:52;;;;;;;7.47;1.52;;;43.20;52.70;;;;;;4983283;28;20417;-57
2022/07/15 12:41:22;;;;;;;3.53;1.50;;;43.20;52.20;;;;;;4986038;28;20045;-57
2022/07/15 12:44:27;;;;;;;3.85;1.23;;;43.00;51.50;;;;;;4986030;28;20406;-57
2022/07/15 12:47:31;;;;;;;4.43;1.58;;;42.40;52.60;;;;;;4988785;28;20049;-57
2022/07/15 12:50:47;;;;;;;1.98;1.13;;;42.50;52.50;;;;;;4984648;28;20049;-57
2022/07/15 12:53:52;;;;;;;1.90;1.55;;;42.50;52.70;;;;;;4988109;28;20526;-58
2022/07/15 12:56:56;;;;;;;3.80;1.25;;;42.40;52.20;;;;;;4994373;28;20425;-58
2022/07/15 13:00:06;;;;;;;2.75;1.35;;;42.40;52.80;;;;;;4994951;28;20041;-56
2022/07/15 13:03:15;;;;;;;;;;;42.40;52.70;;;;;;4989160;28;20041;-57
2022/07/15 13:06:19;;;;;;;2.90;1.10;;;42.30;53.00;;;;;;4992259;28;20398;-57
2022/07/15 13:09:23;;;;;;;4.40;1.20;;;42.40;52.70;;;;;;4982708;28;20409;-57
2022/07/15 13:12:28;;;;;;;1.90;1.15;;;42.70;52.10;;;;;;4991562;28;20045;-55
2022/07/15 13:15:32;;;;;;;2.70;1.38;;;42.50;52.90;;;;;;4986895;28;20045;-57
2022/07/15 13:18:37;;;;;;;3.95;1.63;;;42.30;53.30;;;;;;4999219;28;20045;-56
2022/07/15 13:21:41;;;;;;;25.27;3.03;;;41.10;53.70;;;;;;4986745;28;20669;-56
2022/07/15 13:24:48;;;;;;;5.00;1.30;;;38.40;56.00;;;;;;4982801;28;20053;-57
2022/07/15 13:27:52;;;;;;;4.18;1.50;;;39.20;55.60;;;;;;4987296;28;20041;-57
2022/07/15 13:30:56;;;;;;;5.38;1.45;;;39.30;55.20;;;;;;5042898;22;20310;-51
2022/07/15 13:34:00;;;;;;;2.60;1.40;;;39.50;54.80;;;;;;5029600;28;20053;-56
2022/07/15 13:37:05;;;;;;;7.40;1.63;;;39.70;55.40;;;;;;5021156;28;20044;-55
2022/07/15 13:40:11;;;;;;;3.30;1.50;;;40.00;56.10;;;;;;5029804;28;20045;-51
2022/07/15 13:43:16;;;;;;;7.30;1.50;;;39.90;56.50;;;;;;5030004;28;20045;-51
2022/07/15 13:46:20;;;;;;;6.68;1.90;;;40.20;56.90;;;;;;5030934;28;20052;-52
2022/07/15 13:51:22;;;;;;;2.85;1.80;;;40.30;57.20;;;;;;5031335;28;20064;-57
2022/07/15 13:52:50;;;;;;;5.45;2.45;;;40.10;57.40;;;;;;5028869;28;20487;-55
2022/07/15 13:55:54;;;;;;;3.13;1.60;;;39.90;57.60;;;;;;5026786;28;20048;-57
2022/07/15 13:59:00;;;;;;;3.00;1.60;;;40.10;57.60;;;;;;5025162;28;20045;-55
2022/07/15 14:02:04;;;;;;;4.32;1.70;;;40.20;57.70;;;;;;5028219;28;20040;-57
2022/07/15 14:05:10;;;;;;;5.15;1.92;;;39.90;57.90;;;;;;5028466;28;20044;-55
2022/07/15 14:08:14;;;;;;;5.30;1.90;;;36.90;60.50;;;;;;5022388;28;20036;-55
2022/07/15 14:11:18;;;;;;;4.18;1.77;;;37.70;60.60;;;;;;5030212;28;20045;-51
2022/07/15 14:14:22;;;;;;;4.85;1.90;;;38.30;59.50;;;;;;5027340;28;20028;-52
2022/07/15 14:17:28;;;;;;;6.93;1.90;;;38.70;59.40;;;;;;5026809;28;20048;-57
2022/07/15 14:20:32;;;;;;;3.47;2.00;;;38.80;58.50;;;;;;5020183;28;20053;-54
2022/07/15 14:23:36;;;;;;;4.75;1.90;;;39.00;58.00;;;;;;5027732;28;20515;-53
2022/07/15 14:26:40;;;;;;;4.70;2.00;;;38.20;57.10;;;;;;5025234;28;20077;-56
2022/07/15 14:29:45;;;;;;;5.50;1.92;;;37.00;59.80;;;;;;5022038;28;20052;-53
2022/07/15 14:32:49;;;;;;;6.30;1.85;;;36.90;60.90;;;;;;5025618;28;20037;-51
2022/07/15 14:35:53;;;;;;;5.55;2.47;;;36.50;61.40;;;;;;5027579;28;20048;-57
2022/07/15 14:38:57;;;;;;;6.88;2.10;;;37.00;61.10;;;;;;5027732;28;20049;-51
2022/07/15 14:42:01;;;;;;;2.95;1.88;;;37.40;61.70;;;;;;5024839;28;20041;-55
2022/07/15 14:45:06;;;;;;;2.60;1.95;;;37.50;61.80;;;;;;5021627;28;20052;-54
2022/07/15 14:48:11;;;;;;;3.28;1.98;;;37.70;62.40;;;;;;5028786;28;20435;-52
2022/07/15 14:51:15;;;;;;;4.70;1.80;;;37.40;63.00;;;;;;5030983;28;20044;-57
2022/07/15 14:54:19;;;;;;;6.15;2.40;;;37.30;63.40;;;;;;5030825;28;20052;-56
2022/07/15 14:57:23;;;;;;;6.68;1.88;;;37.40;62.80;;;;;;5031353;28;20057;-52
2022/07/15 15:00:27;;;;;;;6.50;1.95;;;37.40;63.50;;;;;;5030310;28;20551;-52
2022/07/15 15:03:31;;;;;;;3.17;2.15;;;37.10;63.80;;;;;;5030076;28;20041;-51
2022/07/15 15:06:35;;;;;;;4.07;2.00;;;37.10;63.90;;;;;;5030104;28;20044;-56
2022/07/15 15:09:39;;;;;;;11.45;2.20;;;36.80;64.20;;;;;;5029703;28;20045;-56
2022/07/15 15:12:43;;;;;;;8.63;1.73;;;36.70;63.90;;;;;;5029463;28;20052;-51
2022/07/15 15:15:47;;;;;;;3.30;1.88;;;36.60;64.40;;;;;;5030126;28;20049;-55
2022/07/15 15:18:51;;;;;;;3.83;2.00;;;36.50;64.30;;;;;;5027885;28;20062;-50
2022/07/15 15:21:55;;;;;;;5.30;2.10;;;36.50;64.30;;;;;;5024889;28;20400;-55
2022/07/15 15:24:59;;;;;;;6.15;2.05;;;36.30;64.20;;;;;;5028316;28;20040;-52
2022/07/15 15:28:04;;;;;;;3.97;2.13;;;36.10;64.50;;;;;;5029135;28;20041;-55
2022/07/15 15:31:08;;;;;;;5.47;2.25;;;36.20;65.00;;;;;;5029206;28;20619;-54
2022/07/15 15:34:12;;;;;;;4.10;1.98;;;36.20;65.00;;;;;;5028966;28;20052;-51
2022/07/15 15:37:16;;;;;;;3.88;2.13;;;36.20;65.10;;;;;;5029163;28;20044;-57
2022/07/15 15:40:20;;;;;;;6.13;2.20;;;36.10;65.70;;;;;;5029040;28;20113;-56
2022/07/15 15:43:24;;;;;;;5.00;2.03;;;35.90;65.20;;;;;;5029135;28;20044;-55
2022/07/15 15:46:28;;;;;;;5.85;2.22;;;35.80;65.70;;;;;;5028530;28;20515;-54
2022/07/15 15:49:33;;;;;;;3.38;1.73;;;35.70;66.20;;;;;;5029451;28;20547;-53
2022/07/15 15:52:37;;;;;;;4.78;2.58;;;35.60;66.80;;;;;;5028804;28;20056;-52
2022/07/15 15:55:41;;;;;;;5.95;1.80;;;35.60;66.70;;;;;;5029150;28;20400;-53
2022/07/15 15:58:45;;;;;;;6.90;2.00;;;35.40;66.90;;;;;;5028864;28;20048;-52
2022/07/15 16:01:49;;;;;;;5.43;2.30;;;35.30;67.10;;;;;;5029180;28;20408;-53
2022/07/15 16:04:53;;;;;;;4.22;2.10;;;35.20;66.90;;;;;;5026888;28;20400;-51
2022/07/15 16:07:57;;;;;;;10.85;2.13;;;35.00;66.90;;;;;;5028162;28;20049;-51
2022/07/15 16:11:01;;;;;;;6.13;1.90;;;34.90;66.60;;;;;;5029327;28;20041;-55
2022/07/15 16:14:05;;;;;;;4.20;1.80;;;34.80;66.50;;;;;;5028229;28;20048;-50
2022/07/15 16:17:09;;;;;;;2.38;1.65;;;34.70;66.10;;;;;;5028742;28;20073;-51
2022/07/15 16:20:13;;;;;;;6.20;1.60;;;34.60;65.50;;;;;;5031503;28;20043;-52